sensor_id;sensor_type;location;lat;lon;timestamp;pressure;altitude;pressure_sealevel;temperature;humidity
42411;BME280;28056;51.112;0.984;2023-08-01T00:00:12;99239.26;;;15.51;100.00
42411;BME280;28056;51.112;0.984;2023-08-01T00:04:56;99234.78;;;14.55;100.00
42411;BME280;28056;51.112;0.984;2023-08-01T00:07:25;99235.13;;;14.48;100.00
42411;BME280;28056;51.112;0.984;2023-08-01T00:09:53;99237.09;;;14.78;100.00
42411;BME280;28056;51.112;0.984;2023-08-01T00:12:21;99238.10;;;14.91;100.00
42411;BME280;28056;51.112;0.984;2023-08-01T00:14:48;99234.73;;;15.03;100.00
42411;BME280;28056;51.112;0.984;2023-08-01T00:17:16;99239.16;;;15.32;100.00
42411;BME280;28056;51.112;0.984;2023-08-01T00:19:43;99236.34;;;15.23;100.00
42411;BME280;28056;51.112;0.984;2023-08-01T00:22:11;99236.73;;;15.07;100.00
42411;BME280;28056;51.112;0.984;2023-08-01T00:24:39;99236.27;;;15.02;100.00
42411;BME280;28056;51.112;0.984;2023-08-01T00:27:06;99237.99;;;15.08;100.00
42411;BME280;28056;51.112;0.984;2023-08-01T00:29:34;99239.99;;;15.06;100.00
42411;BME280;28056;51.112;0.984;2023-08-01T00:32:01;99241.73;;;14.99;100.00
42411;BME280;28056;51.112;0.984;2023-08-01T00:34:29;99243.93;;;14.86;100.00
42411;BME280;28056;51.112;0.984;2023-08-01T00:36:57;99248.03;;;14.19;100.00
42411;BME280;28056;51.112;0.984;2023-08-01T00:39:24;99247.09;;;14.50;100.00
42411;BME280;28056;51.112;0.984;2023-08-01T00:41:52;99245.35;;;14.27;100.00
42411;BME280;28056;51.112;0.984;2023-08-01T00:44:20;99240.40;;;14.41;100.00
42411;BME280;28056;51.112;0.984;2023-08-01T00:46:47;99242.15;;;14.39;100.00
42411;BME280;28056;51.112;0.984;2023-08-01T00:49:15;99241.76;;;14.52;100.00
42411;BME280;28056;51.112;0.984;2023-08-01T00:51:43;99244.32;;;14.52;100.00
42411;BME280;28056;51.112;0.984;2023-08-01T00:54:10;99243.18;;;14.04;100.00
42411;BME280;28056;51.112;0.984;2023-08-01T00:56:38;99245.91;;;13.69;100.00
42411;BME280;28056;51.112;0.984;2023-08-01T00:59:05;99244.94;;;13.92;100.00
42411;BME280;28056;51.112;0.984;2023-08-01T01:01:33;99248.56;;;13.96;100.00
42411;BME280;28056;51.112;0.984;2023-08-01T01:04:00;99247.43;;;13.84;100.00
42411;BME280;28056;51.112;0.984;2023-08-01T01:06:32;99242.79;;;14.62;100.00
42411;BME280;28056;51.112;0.984;2023-08-01T01:09:00;99242.16;;;14.62;100.00
42411;BME280;28056;51.112;0.984;2023-08-01T01:11:27;99237.55;;;15.15;100.00
42411;BME280;28056;51.112;0.984;2023-08-01T01:13:54;99233.81;;;14.67;100.00
42411;BME280;28056;51.112;0.984;2023-08-01T01:16:22;99234.03;;;14.70;100.00
42411;BME280;28056;51.112;0.984;2023-08-01T01:18:49;99236.08;;;13.94;100.00
42411;BME280;28056;51.112;0.984;2023-08-01T01:21:24;99234.90;;;13.98;100.00
42411;BME280;28056;51.112;0.984;2023-08-01T01:23:52;99234.36;;;13.68;100.00
42411;BME280;28056;51.112;0.984;2023-08-01T01:26:21;99237.53;;;13.28;100.00
42411;BME280;28056;51.112;0.984;2023-08-01T01:28:49;99240.18;;;12.90;100.00
42411;BME280;28056;51.112;0.984;2023-08-01T01:31:18;99240.81;;;13.21;100.00
42411;BME280;28056;51.112;0.984;2023-08-01T01:33:46;99238.11;;;13.69;100.00
42411;BME280;28056;51.112;0.984;2023-08-01T01:36:13;99239.40;;;13.58;100.00
42411;BME280;28056;51.112;0.984;2023-08-01T01:38:41;99237.66;;;13.19;100.00
42411;BME280;28056;51.112;0.984;2023-08-01T01:41:08;99239.72;;;13.55;100.00
42411;BME280;28056;51.112;0.984;2023-08-01T01:43:36;99236.98;;;13.19;100.00
42411;BME280;28056;51.112;0.984;2023-08-01T01:46:02;99234.07;;;13.54;100.00
42411;BME280;28056;51.112;0.984;2023-08-01T01:48:30;99235.93;;;14.21;100.00
42411;BME280;28056;51.112;0.984;2023-08-01T01:50:57;99236.09;;;13.77;100.00
42411;BME280;28056;51.112;0.984;2023-08-01T01:53:25;99238.91;;;12.65;100.00
42411;BME280;28056;51.112;0.984;2023-08-01T01:55:53;99240.64;;;13.12;100.00
42411;BME280;28056;51.112;0.984;2023-08-01T01:58:21;99234.66;;;12.99;100.00
42411;BME280;28056;51.112;0.984;2023-08-01T02:00:49;99237.49;;;12.94;100.00
42411;BME280;28056;51.112;0.984;2023-08-01T02:03:17;99233.05;;;13.44;100.00
42411;BME280;28056;51.112;0.984;2023-08-01T02:05:45;99232.61;;;12.86;100.00
42411;BME280;28056;51.112;0.984;2023-08-01T02:08:13;99235.70;;;13.40;100.00
42411;BME280;28056;51.112;0.984;2023-08-01T02:10:40;99241.60;;;13.30;100.00
42411;BME280;28056;51.112;0.984;2023-08-01T02:13:08;99238.71;;;13.46;100.00
42411;BME280;28056;51.112;0.984;2023-08-01T02:15:35;99238.50;;;13.76;100.00
42411;BME280;28056;51.112;0.984;2023-08-01T02:18:03;99240.29;;;13.40;100.00
42411;BME280;28056;51.112;0.984;2023-08-01T02:20:30;99239.88;;;13.45;100.00
42411;BME280;28056;51.112;0.984;2023-08-01T02:22:58;99239.38;;;13.81;100.00
42411;BME280;28056;51.112;0.984;2023-08-01T02:25:26;99242.27;;;13.06;100.00
42411;BME280;28056;51.112;0.984;2023-08-01T02:27:52;99244.45;;;13.70;100.00
42411;BME280;28056;51.112;0.984;2023-08-01T02:30:20;99246.34;;;12.84;100.00
42411;BME280;28056;51.112;0.984;2023-08-01T02:32:47;99245.85;;;12.74;100.00
42411;BME280;28056;51.112;0.984;2023-08-01T02:35:14;99244.95;;;12.67;100.00
42411;BME280;28056;51.112;0.984;2023-08-01T02:37:41;99241.55;;;12.38;100.00
42411;BME280;28056;51.112;0.984;2023-08-01T02:40:10;99243.57;;;13.01;100.00
42411;BME280;28056;51.112;0.984;2023-08-01T02:42:38;99244.84;;;12.69;100.00
42411;BME280;28056;51.112;0.984;2023-08-01T02:45:06;99247.80;;;12.90;100.00
42411;BME280;28056;51.112;0.984;2023-08-01T02:47:34;99245.98;;;12.40;100.00
42411;BME280;28056;51.112;0.984;2023-08-01T02:50:02;99245.14;;;12.49;100.00
42411;BME280;28056;51.112;0.984;2023-08-01T02:52:29;99246.59;;;12.25;100.00
42411;BME280;28056;51.112;0.984;2023-08-01T02:54:56;99250.70;;;12.60;100.00
42411;BME280;28056;51.112;0.984;2023-08-01T02:57:24;99250.12;;;12.84;100.00
42411;BME280;28056;51.112;0.984;2023-08-01T02:59:51;99246.50;;;13.04;100.00
42411;BME280;28056;51.112;0.984;2023-08-01T03:02:18;99246.01;;;12.72;100.00
42411;BME280;28056;51.112;0.984;2023-08-01T03:04:45;99246.86;;;13.00;100.00
42411;BME280;28056;51.112;0.984;2023-08-01T03:07:13;99248.48;;;13.06;100.00
42411;BME280;28056;51.112;0.984;2023-08-01T03:09:40;99249.67;;;13.53;100.00
42411;BME280;28056;51.112;0.984;2023-08-01T03:12:08;99254.87;;;13.39;100.00
42411;BME280;28056;51.112;0.984;2023-08-01T03:14:35;99259.28;;;14.12;100.00
42411;BME280;28056;51.112;0.984;2023-08-01T03:17:03;99256.14;;;14.00;100.00
42411;BME280;28056;51.112;0.984;2023-08-01T03:19:31;99251.80;;;14.78;100.00
42411;BME280;28056;51.112;0.984;2023-08-01T03:21:58;99252.85;;;14.79;100.00
42411;BME280;28056;51.112;0.984;2023-08-01T03:24:27;99255.24;;;14.92;100.00
42411;BME280;28056;51.112;0.984;2023-08-01T03:26:54;99257.89;;;14.91;100.00
42411;BME280;28056;51.112;0.984;2023-08-01T03:29:21;99254.80;;;14.25;100.00
42411;BME280;28056;51.112;0.984;2023-08-01T03:31:48;99250.12;;;13.27;100.00
42411;BME280;28056;51.112;0.984;2023-08-01T03:34:16;99247.87;;;13.62;100.00
42411;BME280;28056;51.112;0.984;2023-08-01T03:36:43;99245.58;;;13.33;100.00
42411;BME280;28056;51.112;0.984;2023-08-01T03:39:11;99246.44;;;13.44;100.00
42411;BME280;28056;51.112;0.984;2023-08-01T03:41:38;99247.02;;;13.64;100.00
42411;BME280;28056;51.112;0.984;2023-08-01T03:44:05;99252.16;;;13.45;100.00
42411;BME280;28056;51.112;0.984;2023-08-01T03:46:32;99254.65;;;12.91;100.00
42411;BME280;28056;51.112;0.984;2023-08-01T03:48:59;99255.77;;;12.67;100.00
42411;BME280;28056;51.112;0.984;2023-08-01T03:51:27;99254.76;;;12.69;100.00
42411;BME280;28056;51.112;0.984;2023-08-01T03:53:54;99253.19;;;13.37;100.00
42411;BME280;28056;51.112;0.984;2023-08-01T03:56:22;99253.82;;;12.53;100.00
42411;BME280;28056;51.112;0.984;2023-08-01T03:58:49;99251.91;;;12.17;100.00
42411;BME280;28056;51.112;0.984;2023-08-01T04:01:17;99253.38;;;12.66;100.00
42411;BME280;28056;51.112;0.984;2023-08-01T04:03:45;99251.10;;;12.57;100.00
42411;BME280;28056;51.112;0.984;2023-08-01T04:06:12;99245.81;;;12.47;100.00
42411;BME280;28056;51.112;0.984;2023-08-01T04:08:40;99244.63;;;12.26;100.00
42411;BME280;28056;51.112;0.984;2023-08-01T04:11:08;99242.40;;;12.55;100.00
42411;BME280;28056;51.112;0.984;2023-08-01T04:13:36;99242.60;;;12.63;100.00
42411;BME280;28056;51.112;0.984;2023-08-01T04:16:03;99243.80;;;12.55;100.00
42411;BME280;28056;51.112;0.984;2023-08-01T04:18:31;99243.37;;;12.49;100.00
42411;BME280;28056;51.112;0.984;2023-08-01T04:20:58;99247.75;;;13.20;100.00
42411;BME280;28056;51.112;0.984;2023-08-01T04:23:25;99243.33;;;12.22;100.00
42411;BME280;28056;51.112;0.984;2023-08-01T04:25:52;99240.82;;;12.68;100.00
42411;BME280;28056;51.112;0.984;2023-08-01T04:28:19;99240.32;;;12.25;100.00
42411;BME280;28056;51.112;0.984;2023-08-01T04:30:49;99234.99;;;12.84;100.00
42411;BME280;28056;51.112;0.984;2023-08-01T04:33:16;99234.67;;;13.27;100.00
42411;BME280;28056;51.112;0.984;2023-08-01T04:35:44;99237.53;;;13.75;100.00
42411;BME280;28056;51.112;0.984;2023-08-01T04:38:12;99240.04;;;13.63;100.00
42411;BME280;28056;51.112;0.984;2023-08-01T04:40:39;99240.21;;;13.72;100.00
42411;BME280;28056;51.112;0.984;2023-08-01T04:43:07;99244.66;;;13.31;100.00
42411;BME280;28056;51.112;0.984;2023-08-01T04:45:35;99247.56;;;13.13;100.00
42411;BME280;28056;51.112;0.984;2023-08-01T04:48:03;99247.99;;;13.01;100.00
42411;BME280;28056;51.112;0.984;2023-08-01T04:50:30;99243.27;;;13.73;100.00
42411;BME280;28056;51.112;0.984;2023-08-01T04:52:58;99248.94;;;14.10;100.00
42411;BME280;28056;51.112;0.984;2023-08-01T04:55:25;99254.11;;;14.07;100.00
42411;BME280;28056;51.112;0.984;2023-08-01T04:57:51;99253.85;;;13.23;100.00
42411;BME280;28056;51.112;0.984;2023-08-01T05:00:19;99255.02;;;13.70;100.00
42411;BME280;28056;51.112;0.984;2023-08-01T05:02:47;99257.34;;;13.16;100.00
42411;BME280;28056;51.112;0.984;2023-08-01T05:05:19;99258.71;;;13.07;100.00
42411;BME280;28056;51.112;0.984;2023-08-01T05:07:45;99268.88;;;13.17;100.00
42411;BME280;28056;51.112;0.984;2023-08-01T05:10:13;99269.67;;;12.76;100.00
42411;BME280;28056;51.112;0.984;2023-08-01T05:12:41;99272.68;;;13.21;100.00
42411;BME280;28056;51.112;0.984;2023-08-01T05:15:08;99275.14;;;13.47;100.00
42411;BME280;28056;51.112;0.984;2023-08-01T05:17:35;99283.25;;;13.13;100.00
42411;BME280;28056;51.112;0.984;2023-08-01T05:20:04;99284.32;;;12.90;100.00
42411;BME280;28056;51.112;0.984;2023-08-01T05:22:31;99280.00;;;13.07;100.00
42411;BME280;28056;51.112;0.984;2023-08-01T05:24:59;99279.13;;;12.66;100.00
42411;BME280;28056;51.112;0.984;2023-08-01T05:27:26;99278.97;;;12.92;100.00
42411;BME280;28056;51.112;0.984;2023-08-01T05:29:53;99280.80;;;12.89;100.00
42411;BME280;28056;51.112;0.984;2023-08-01T05:32:20;99284.66;;;12.65;100.00
42411;BME280;28056;51.112;0.984;2023-08-01T05:34:48;99289.31;;;12.72;100.00
42411;BME280;28056;51.112;0.984;2023-08-01T05:37:15;99289.15;;;12.32;100.00
42411;BME280;28056;51.112;0.984;2023-08-01T05:39:43;99290.56;;;13.08;100.00
42411;BME280;28056;51.112;0.984;2023-08-01T05:42:10;99294.56;;;13.13;100.00
42411;BME280;28056;51.112;0.984;2023-08-01T05:44:38;99294.77;;;12.46;100.00
42411;BME280;28056;51.112;0.984;2023-08-01T05:47:06;99299.91;;;12.70;100.00
42411;BME280;28056;51.112;0.984;2023-08-01T05:49:33;99304.55;;;13.26;100.00
42411;BME280;28056;51.112;0.984;2023-08-01T05:52:01;99302.55;;;13.00;100.00
42411;BME280;28056;51.112;0.984;2023-08-01T05:54:28;99300.00;;;12.68;100.00
42411;BME280;28056;51.112;0.984;2023-08-01T05:56:56;99300.84;;;13.35;100.00
42411;BME280;28056;51.112;0.984;2023-08-01T05:59:23;99305.14;;;12.47;100.00
42411;BME280;28056;51.112;0.984;2023-08-01T06:01:50;99301.51;;;12.65;100.00
42411;BME280;28056;51.112;0.984;2023-08-01T06:04:18;99302.21;;;13.01;100.00
42411;BME280;28056;51.112;0.984;2023-08-01T06:06:45;99303.56;;;13.32;100.00
42411;BME280;28056;51.112;0.984;2023-08-01T06:09:12;99310.79;;;13.27;100.00
42411;BME280;28056;51.112;0.984;2023-08-01T06:11:40;99307.76;;;12.72;100.00
42411;BME280;28056;51.112;0.984;2023-08-01T06:14:08;99309.61;;;12.69;100.00
42411;BME280;28056;51.112;0.984;2023-08-01T06:16:35;99313.42;;;13.31;100.00
42411;BME280;28056;51.112;0.984;2023-08-01T06:19:03;99311.54;;;13.09;100.00
42411;BME280;28056;51.112;0.984;2023-08-01T06:21:31;99313.67;;;12.93;100.00
42411;BME280;28056;51.112;0.984;2023-08-01T06:23:58;99312.70;;;13.36;100.00
42411;BME280;28056;51.112;0.984;2023-08-01T06:26:26;99317.65;;;13.19;100.00
42411;BME280;28056;51.112;0.984;2023-08-01T06:28:54;99316.42;;;13.00;100.00
42411;BME280;28056;51.112;0.984;2023-08-01T06:31:21;99310.19;;;13.76;100.00
42411;BME280;28056;51.112;0.984;2023-08-01T06:33:48;99319.83;;;13.27;100.00
42411;BME280;28056;51.112;0.984;2023-08-01T06:36:15;99318.14;;;13.51;100.00
42411;BME280;28056;51.112;0.984;2023-08-01T06:38:43;99323.31;;;12.71;100.00
42411;BME280;28056;51.112;0.984;2023-08-01T06:41:11;99326.61;;;13.38;100.00
42411;BME280;28056;51.112;0.984;2023-08-01T06:43:38;99330.01;;;13.13;100.00
42411;BME280;28056;51.112;0.984;2023-08-01T06:46:06;99320.82;;;13.55;100.00
42411;BME280;28056;51.112;0.984;2023-08-01T06:48:34;99316.65;;;13.59;100.00
42411;BME280;28056;51.112;0.984;2023-08-01T06:51:01;99315.87;;;14.26;100.00
42411;BME280;28056;51.112;0.984;2023-08-01T06:53:29;99318.17;;;13.79;100.00
42411;BME280;28056;51.112;0.984;2023-08-01T06:55:56;99327.49;;;13.43;100.00
42411;BME280;28056;51.112;0.984;2023-08-01T06:58:24;99318.99;;;14.53;100.00
42411;BME280;28056;51.112;0.984;2023-08-01T07:00:52;99321.70;;;13.61;100.00
42411;BME280;28056;51.112;0.984;2023-08-01T07:03:20;99321.33;;;13.87;100.00
42411;BME280;28056;51.112;0.984;2023-08-01T07:05:47;99320.24;;;13.86;100.00
42411;BME280;28056;51.112;0.984;2023-08-01T07:08:14;99322.20;;;13.65;100.00
42411;BME280;28056;51.112;0.984;2023-08-01T07:10:42;99328.91;;;14.72;100.00
42411;BME280;28056;51.112;0.984;2023-08-01T07:13:10;99329.13;;;13.85;100.00
42411;BME280;28056;51.112;0.984;2023-08-01T07:15:37;99324.81;;;13.78;100.00
42411;BME280;28056;51.112;0.984;2023-08-01T07:18:05;99322.85;;;13.68;100.00
42411;BME280;28056;51.112;0.984;2023-08-01T07:20:33;99327.76;;;13.62;100.00
42411;BME280;28056;51.112;0.984;2023-08-01T07:23:00;99335.23;;;14.09;100.00
42411;BME280;28056;51.112;0.984;2023-08-01T07:25:28;99331.34;;;13.28;100.00
42411;BME280;28056;51.112;0.984;2023-08-01T07:27:56;99333.40;;;14.07;100.00
42411;BME280;28056;51.112;0.984;2023-08-01T07:30:24;99334.15;;;14.25;100.00
42411;BME280;28056;51.112;0.984;2023-08-01T07:32:53;99333.61;;;14.23;100.00
42411;BME280;28056;51.112;0.984;2023-08-01T07:35:20;99332.99;;;14.82;100.00
42411;BME280;28056;51.112;0.984;2023-08-01T07:37:47;99326.52;;;14.39;100.00
42411;BME280;28056;51.112;0.984;2023-08-01T07:40:15;99331.25;;;14.29;100.00
42411;BME280;28056;51.112;0.984;2023-08-01T07:42:43;99328.34;;;14.72;100.00
42411;BME280;28056;51.112;0.984;2023-08-01T07:45:10;99331.25;;;15.24;100.00
42411;BME280;28056;51.112;0.984;2023-08-01T07:47:38;99327.83;;;14.89;100.00
42411;BME280;28056;51.112;0.984;2023-08-01T07:50:06;99326.83;;;14.74;100.00
42411;BME280;28056;51.112;0.984;2023-08-01T07:52:33;99332.65;;;14.83;100.00
42411;BME280;28056;51.112;0.984;2023-08-01T07:55:00;99334.70;;;14.61;100.00
42411;BME280;28056;51.112;0.984;2023-08-01T07:57:28;99336.06;;;14.73;100.00
42411;BME280;28056;51.112;0.984;2023-08-01T07:59:56;99332.85;;;15.09;100.00
42411;BME280;28056;51.112;0.984;2023-08-01T08:02:29;99337.03;;;15.10;99.97
42411;BME280;28056;51.112;0.984;2023-08-01T08:04:57;99330.21;;;15.56;100.00
42411;BME280;28056;51.112;0.984;2023-08-01T08:07:24;99335.62;;;15.16;100.00
42411;BME280;28056;51.112;0.984;2023-08-01T08:09:52;99340.64;;;15.81;100.00
42411;BME280;28056;51.112;0.984;2023-08-01T08:12:19;99342.31;;;15.06;99.35
42411;BME280;28056;51.112;0.984;2023-08-01T08:14:47;99337.40;;;14.88;100.00
42411;BME280;28056;51.112;0.984;2023-08-01T08:17:14;99338.24;;;14.46;100.00
42411;BME280;28056;51.112;0.984;2023-08-01T08:19:42;99337.91;;;14.29;99.50
42411;BME280;28056;51.112;0.984;2023-08-01T08:22:10;99337.79;;;14.89;99.20
42411;BME280;28056;51.112;0.984;2023-08-01T08:24:37;99340.58;;;15.00;100.00
42411;BME280;28056;51.112;0.984;2023-08-01T08:27:05;99335.28;;;15.60;100.00
42411;BME280;28056;51.112;0.984;2023-08-01T08:29:33;99340.22;;;15.69;100.00
42411;BME280;28056;51.112;0.984;2023-08-01T08:32:00;99343.98;;;16.37;97.42
42411;BME280;28056;51.112;0.984;2023-08-01T08:34:28;99339.69;;;15.85;88.76
42411;BME280;28056;51.112;0.984;2023-08-01T08:36:55;99341.18;;;15.20;93.24
42411;BME280;28056;51.112;0.984;2023-08-01T08:39:23;99342.93;;;14.80;89.81
42411;BME280;28056;51.112;0.984;2023-08-01T08:41:52;99336.35;;;15.50;91.07
42411;BME280;28056;51.112;0.984;2023-08-01T08:44:20;99343.79;;;15.35;89.59
42411;BME280;28056;51.112;0.984;2023-08-01T08:46:50;99351.40;;;15.82;90.45
42411;BME280;28056;51.112;0.984;2023-08-01T08:49:19;99354.10;;;15.95;89.04
42411;BME280;28056;51.112;0.984;2023-08-01T08:51:47;99344.80;;;16.43;88.11
42411;BME280;28056;51.112;0.984;2023-08-01T08:54:16;99341.19;;;16.54;83.18
42411;BME280;28056;51.112;0.984;2023-08-01T08:56:44;99340.97;;;16.68;80.49
42411;BME280;28056;51.112;0.984;2023-08-01T08:59:12;99346.16;;;16.82;80.97
42411;BME280;28056;51.112;0.984;2023-08-01T09:01:40;99350.62;;;16.28;86.15
42411;BME280;28056;51.112;0.984;2023-08-01T09:04:08;99345.13;;;16.35;80.99
42411;BME280;28056;51.112;0.984;2023-08-01T09:06:42;99346.08;;;16.90;79.93
42411;BME280;28056;51.112;0.984;2023-08-01T09:09:13;99346.70;;;16.28;75.16
42411;BME280;28056;51.112;0.984;2023-08-01T09:11:46;99347.46;;;16.96;81.31
42411;BME280;28056;51.112;0.984;2023-08-01T09:14:14;99345.82;;;16.84;75.83
42411;BME280;28056;51.112;0.984;2023-08-01T09:16:42;99345.48;;;16.83;74.70
42411;BME280;28056;51.112;0.984;2023-08-01T09:19:09;99344.48;;;16.00;75.00
42411;BME280;28056;51.112;0.984;2023-08-01T09:21:39;99341.40;;;16.71;76.76
42411;BME280;28056;51.112;0.984;2023-08-01T09:24:10;99335.04;;;18.09;80.37
42411;BME280;28056;51.112;0.984;2023-08-01T09:26:38;99339.32;;;18.90;70.62
42411;BME280;28056;51.112;0.984;2023-08-01T09:29:06;99330.75;;;18.12;71.11
42411;BME280;28056;51.112;0.984;2023-08-01T09:31:37;99328.44;;;19.17;71.50
42411;BME280;28056;51.112;0.984;2023-08-01T09:34:06;99333.76;;;17.30;68.57
42411;BME280;28056;51.112;0.984;2023-08-01T09:36:34;99341.66;;;17.19;70.40
42411;BME280;28056;51.112;0.984;2023-08-01T09:39:02;99337.40;;;17.49;69.14
42411;BME280;28056;51.112;0.984;2023-08-01T09:41:31;99339.44;;;18.17;70.47
42411;BME280;28056;51.112;0.984;2023-08-01T09:43:58;99333.22;;;18.26;65.18
42411;BME280;28056;51.112;0.984;2023-08-01T09:46:26;99339.87;;;18.23;64.14
42411;BME280;28056;51.112;0.984;2023-08-01T09:48:53;99340.75;;;17.10;64.91
42411;BME280;28056;51.112;0.984;2023-08-01T09:51:21;99341.86;;;16.93;67.30
42411;BME280;28056;51.112;0.984;2023-08-01T09:53:50;99343.18;;;17.18;66.38
42411;BME280;28056;51.112;0.984;2023-08-01T09:56:19;99339.25;;;18.46;67.40
42411;BME280;28056;51.112;0.984;2023-08-01T09:58:47;99344.60;;;18.96;67.90
42411;BME280;28056;51.112;0.984;2023-08-01T10:01:19;99340.66;;;18.65;65.44
42411;BME280;28056;51.112;0.984;2023-08-01T10:03:48;99344.53;;;17.54;66.12
42411;BME280;28056;51.112;0.984;2023-08-01T10:06:18;99349.51;;;17.40;67.41
42411;BME280;28056;51.112;0.984;2023-08-01T10:08:47;99351.22;;;16.73;69.16
42411;BME280;28056;51.112;0.984;2023-08-01T10:11:16;99346.85;;;16.97;68.85
42411;BME280;28056;51.112;0.984;2023-08-01T10:13:45;99344.53;;;17.17;69.56
42411;BME280;28056;51.112;0.984;2023-08-01T10:16:14;99339.57;;;16.14;67.03
42411;BME280;28056;51.112;0.984;2023-08-01T10:18:43;99342.70;;;16.88;66.64
42411;BME280;28056;51.112;0.984;2023-08-01T10:21:13;99340.21;;;16.54;68.11
42411;BME280;28056;51.112;0.984;2023-08-01T10:23:41;99350.72;;;16.63;68.15
42411;BME280;28056;51.112;0.984;2023-08-01T10:26:11;99358.81;;;17.45;70.22
42411;BME280;28056;51.112;0.984;2023-08-01T10:28:39;99361.74;;;17.38;65.39
42411;BME280;28056;51.112;0.984;2023-08-01T10:31:09;99365.44;;;16.64;66.34
42411;BME280;28056;51.112;0.984;2023-08-01T10:33:37;99375.64;;;16.28;68.35
42411;BME280;28056;51.112;0.984;2023-08-01T10:36:22;99369.98;;;16.48;67.41
42411;BME280;28056;51.112;0.984;2023-08-01T10:38:51;99373.25;;;16.22;67.94
42411;BME280;28056;51.112;0.984;2023-08-01T10:41:20;99370.84;;;16.52;68.97
42411;BME280;28056;51.112;0.984;2023-08-01T10:43:48;99362.63;;;16.77;68.51
42411;BME280;28056;51.112;0.984;2023-08-01T10:46:16;99366.14;;;16.85;68.41
42411;BME280;28056;51.112;0.984;2023-08-01T10:48:52;99364.20;;;16.83;68.04
42411;BME280;28056;51.112;0.984;2023-08-01T10:51:20;99363.67;;;17.00;66.45
42411;BME280;28056;51.112;0.984;2023-08-01T10:53:47;99364.09;;;16.77;65.26
42411;BME280;28056;51.112;0.984;2023-08-01T10:56:17;99364.72;;;17.51;68.53
42411;BME280;28056;51.112;0.984;2023-08-01T10:58:44;99357.74;;;18.18;62.76
42411;BME280;28056;51.112;0.984;2023-08-01T11:01:11;99355.95;;;17.99;59.37
42411;BME280;28056;51.112;0.984;2023-08-01T11:03:40;99365.84;;;19.08;58.28
42411;BME280;28056;51.112;0.984;2023-08-01T11:06:07;99370.25;;;18.13;55.38
42411;BME280;28056;51.112;0.984;2023-08-01T11:08:36;99370.36;;;17.96;57.29
42411;BME280;28056;51.112;0.984;2023-08-01T11:11:05;99375.97;;;18.26;57.96
42411;BME280;28056;51.112;0.984;2023-08-01T11:13:34;99375.45;;;18.87;56.89
42411;BME280;28056;51.112;0.984;2023-08-01T11:16:02;99367.05;;;18.80;56.82
42411;BME280;28056;51.112;0.984;2023-08-01T11:18:30;99376.72;;;18.14;55.00
42411;BME280;28056;51.112;0.984;2023-08-01T11:20:58;99379.75;;;18.40;53.55
42411;BME280;28056;51.112;0.984;2023-08-01T11:23:29;99380.80;;;17.87;53.93
42411;BME280;28056;51.112;0.984;2023-08-01T11:25:57;99378.09;;;18.89;54.99
42411;BME280;28056;51.112;0.984;2023-08-01T11:28:24;99371.05;;;19.02;51.27
42411;BME280;28056;51.112;0.984;2023-08-01T11:30:51;99378.30;;;18.83;50.88
42411;BME280;28056;51.112;0.984;2023-08-01T11:33:20;99379.32;;;20.20;54.39
42411;BME280;28056;51.112;0.984;2023-08-01T11:35:51;99384.12;;;18.58;50.63
42411;BME280;28056;51.112;0.984;2023-08-01T11:38:18;99378.66;;;18.58;53.50
42411;BME280;28056;51.112;0.984;2023-08-01T11:40:47;99380.33;;;19.24;51.54
42411;BME280;28056;51.112;0.984;2023-08-01T11:43:15;99386.40;;;18.21;52.32
42411;BME280;28056;51.112;0.984;2023-08-01T11:45:50;99382.58;;;18.40;52.73
42411;BME280;28056;51.112;0.984;2023-08-01T11:48:18;99381.94;;;18.46;51.77
42411;BME280;28056;51.112;0.984;2023-08-01T11:50:45;99373.54;;;19.05;53.45
42411;BME280;28056;51.112;0.984;2023-08-01T11:53:21;99374.59;;;18.52;53.96
42411;BME280;28056;51.112;0.984;2023-08-01T11:55:49;99380.74;;;20.02;52.16
42411;BME280;28056;51.112;0.984;2023-08-01T11:58:27;99378.60;;;20.12;50.15
42411;BME280;28056;51.112;0.984;2023-08-01T12:01:02;99384.16;;;20.21;49.15
42411;BME280;28056;51.112;0.984;2023-08-01T12:03:30;99374.78;;;20.18;48.68
42411;BME280;28056;51.112;0.984;2023-08-01T12:06:03;99376.35;;;20.03;45.31
42411;BME280;28056;51.112;0.984;2023-08-01T12:08:32;99375.45;;;19.11;49.21
42411;BME280;28056;51.112;0.984;2023-08-01T12:11:00;99371.55;;;19.20;48.58
42411;BME280;28056;51.112;0.984;2023-08-01T12:13:28;99374.64;;;20.84;50.74
42411;BME280;28056;51.112;0.984;2023-08-01T12:15:55;99371.61;;;20.77;47.20
42411;BME280;28056;51.112;0.984;2023-08-01T12:18:24;99370.29;;;19.12;48.68
42411;BME280;28056;51.112;0.984;2023-08-01T12:20:51;99375.43;;;20.39;48.48
42411;BME280;28056;51.112;0.984;2023-08-01T12:23:20;99364.34;;;19.25;50.69
42411;BME280;28056;51.112;0.984;2023-08-01T12:25:48;99362.85;;;18.70;50.27
42411;BME280;28056;51.112;0.984;2023-08-01T12:28:16;99360.71;;;19.05;51.50
42411;BME280;28056;51.112;0.984;2023-08-01T12:30:44;99367.38;;;19.44;51.76
42411;BME280;28056;51.112;0.984;2023-08-01T12:33:11;99366.29;;;19.38;53.06
42411;BME280;28056;51.112;0.984;2023-08-01T12:35:40;99372.93;;;21.10;52.12
42411;BME280;28056;51.112;0.984;2023-08-01T12:38:08;99370.14;;;21.03;50.57
42411;BME280;28056;51.112;0.984;2023-08-01T12:40:35;99364.58;;;21.52;48.76
42411;BME280;28056;51.112;0.984;2023-08-01T12:43:02;99365.17;;;21.56;50.35
42411;BME280;28056;51.112;0.984;2023-08-01T12:45:30;99366.55;;;20.87;47.75
42411;BME280;28056;51.112;0.984;2023-08-01T12:47:57;99362.79;;;21.59;49.07
42411;BME280;28056;51.112;0.984;2023-08-01T12:50:25;99359.94;;;22.27;45.17
42411;BME280;28056;51.112;0.984;2023-08-01T12:52:52;99365.16;;;22.18;44.51
42411;BME280;28056;51.112;0.984;2023-08-01T12:55:20;99360.55;;;23.62;53.18
42411;BME280;28056;51.112;0.984;2023-08-01T12:57:47;99360.35;;;23.46;43.23